createdAt,value
2023-04-29T00:01:59.123Z,13.05
2023-04-29T00:04:26.671Z,14.70
2023-04-29T00:06:54.252Z,16.52
2023-04-29T00:09:22.215Z,13.05
2023-04-29T00:11:50.545Z,14.40
2023-04-29T00:14:17.694Z,12.77
2023-04-29T00:16:44.785Z,13.48
2023-04-29T00:19:14.308Z,11.98
2023-04-29T00:21:41.596Z,13.40
2023-04-29T00:24:11.830Z,12.52
2023-04-29T00:26:38.824Z,12.15
2023-04-29T00:29:09.103Z,15.93
2023-04-29T00:31:37.534Z,13.18
2023-04-29T00:34:04.672Z,15.20
2023-04-29T00:36:32.589Z,14.77
2023-04-29T00:38:59.853Z,15.35
2023-04-29T00:41:26.906Z,15.95
2023-04-29T00:43:53.940Z,14.15
2023-04-29T00:46:21.036Z,11.05
2023-04-29T00:48:48.652Z,15.43
2023-04-29T00:51:15.652Z,16.05
2023-04-29T00:53:42.805Z,14.70
2023-04-29T00:56:10.607Z,17.60
2023-04-29T00:58:39.471Z,13.90
2023-04-29T01:01:09.143Z,16.50
2023-04-29T01:03:37.192Z,13.43
2023-04-29T01:06:48.108Z,13.43
2023-04-29T01:09:23.957Z,14.35
2023-04-29T01:12:02.168Z,13.35
2023-04-29T01:14:29.324Z,14.25
2023-04-29T01:17:00.204Z,18.40
2023-04-29T01:19:50.858Z,16.20
2023-04-29T01:22:19.030Z,14.90
2023-04-29T01:24:46.479Z,15.20
2023-04-29T01:27:37.427Z,17.10
2023-04-29T01:30:28.762Z,16.88
2023-04-29T01:33:04.595Z,13.45
2023-04-29T01:35:45.913Z,16.05
2023-04-29T01:38:40.144Z,19.90
2023-04-29T01:41:18.510Z,16.88
2023-04-29T01:43:47.953Z,17.45
2023-04-29T01:46:16.644Z,18.80
2023-04-29T01:48:43.699Z,15.55
2023-04-29T01:51:11.601Z,16.00
2023-04-29T01:53:40.594Z,21.08
2023-04-29T01:56:09.116Z,14.50
2023-04-29T01:58:36.153Z,14.18
2023-04-29T02:01:03.414Z,16.52
2023-04-29T02:03:30.987Z,15.73
2023-04-29T02:05:59.303Z,14.25
2023-04-29T02:08:26.553Z,16.38
2023-04-29T02:10:57.793Z,18.13
2023-04-29T02:13:27.496Z,16.55
2023-04-29T02:15:54.597Z,15.93
2023-04-29T02:18:21.815Z,15.52
2023-04-29T02:20:50.871Z,15.30
2023-04-29T02:23:18.110Z,13.77
2023-04-29T02:25:45.108Z,13.15
2023-04-29T02:28:12.441Z,19.90
2023-04-29T02:30:39.406Z,14.00
2023-04-29T02:33:08.490Z,15.02
2023-04-29T02:35:36.120Z,13.80
2023-04-29T02:38:03.157Z,13.27
2023-04-29T02:40:30.171Z,14.80
2023-04-29T02:42:57.107Z,13.65
2023-04-29T02:45:24.113Z,13.98
2023-04-29T02:47:51.092Z,14.13
2023-04-29T02:50:18.216Z,16.25
2023-04-29T02:52:45.230Z,15.65
2023-04-29T02:55:12.172Z,16.55
2023-04-29T02:57:39.343Z,14.32
2023-04-29T03:00:08.630Z,13.82
2023-04-29T03:02:35.797Z,15.82
2023-04-29T03:05:03.175Z,15.32
2023-04-29T03:07:30.536Z,13.93
2023-04-29T03:09:57.743Z,15.27
2023-04-29T03:12:24.795Z,14.80
2023-04-29T03:14:54.312Z,15.23
2023-04-29T03:17:21.339Z,14.50
2023-04-29T03:19:48.305Z,16.05
2023-04-29T03:22:15.228Z,14.15
2023-04-29T03:24:42.330Z,13.25
2023-04-29T03:27:09.569Z,15.32
2023-04-29T03:29:38.347Z,14.18
2023-04-29T03:32:05.426Z,16.67
2023-04-29T03:34:32.538Z,20.27
2023-04-29T03:36:59.779Z,14.32
2023-04-29T03:39:28.287Z,17.90
2023-04-29T03:41:55.367Z,15.85
2023-04-29T03:44:22.522Z,14.27
2023-04-29T03:46:51.343Z,16.63
2023-04-29T03:49:18.569Z,15.48
2023-04-29T03:51:45.743Z,13.18
2023-04-29T03:54:13.209Z,17.20
2023-04-29T03:56:40.349Z,19.30
2023-04-29T03:59:07.812Z,14.70
2023-04-29T04:01:35.006Z,11.68
2023-04-29T04:04:02.328Z,12.18
2023-04-29T04:06:29.461Z,13.35
2023-04-29T04:08:56.588Z,14.40
2023-04-29T04:11:23.762Z,12.15
2023-04-29T04:13:50.819Z,14.85
2023-04-29T04:16:17.875Z,14.65
2023-04-29T04:18:44.785Z,11.98
2023-04-29T04:21:12.239Z,13.88
2023-04-29T04:23:42.639Z,13.00
2023-04-29T04:26:09.646Z,13.25
2023-04-29T04:28:36.600Z,14.73
2023-04-29T04:31:06.716Z,14.80
2023-04-29T04:33:37.190Z,13.35
2023-04-29T04:36:04.327Z,12.57
2023-04-29T04:38:33.047Z,15.63
2023-04-29T04:41:00.138Z,18.55
2023-04-29T04:43:27.744Z,12.63
2023-04-29T04:45:54.875Z,17.50
2023-04-29T04:48:23.988Z,15.05
2023-04-29T04:50:51.058Z,11.65
2023-04-29T04:53:18.150Z,12.48
2023-04-29T04:55:45.671Z,14.80
2023-04-29T04:58:12.709Z,14.57
2023-04-29T05:00:45.877Z,15.38
2023-04-29T05:03:13.147Z,21.25
2023-04-29T05:05:40.289Z,16.55
2023-04-29T05:08:11.673Z,16.08
2023-04-29T05:10:44.580Z,15.20
2023-04-29T05:13:11.785Z,12.87
2023-04-29T05:15:38.776Z,15.68
2023-04-29T05:18:08.072Z,20.05
2023-04-29T05:20:35.178Z,17.73
2023-04-29T05:23:04.985Z,13.57
2023-04-29T05:25:31.979Z,14.15
2023-04-29T05:27:58.982Z,14.50
2023-04-29T05:30:26.146Z,13.95
2023-04-29T05:32:53.225Z,16.38
2023-04-29T05:35:20.446Z,15.43
2023-04-29T05:37:50.961Z,14.95
2023-04-29T05:40:48.093Z,17.50
2023-04-29T05:43:15.050Z,18.02
2023-04-29T05:45:42.097Z,17.83
2023-04-29T05:48:09.195Z,13.95
2023-04-29T05:50:36.381Z,18.17
2023-04-29T05:53:03.454Z,20.02
2023-04-29T05:55:32.596Z,20.50
2023-04-29T05:57:59.842Z,20.75
2023-04-29T06:00:27.936Z,18.08
2023-04-29T06:02:58.685Z,17.95
2023-04-29T06:05:27.413Z,20.30
2023-04-29T06:07:55.088Z,17.25
2023-04-29T06:10:22.110Z,19.65
2023-04-29T06:12:51.713Z,17.65
2023-04-29T06:15:18.694Z,19.35
2023-04-29T06:17:45.751Z,20.38
2023-04-29T06:20:13.172Z,18.20
2023-04-29T06:22:40.589Z,17.50
2023-04-29T06:25:10.814Z,18.70
2023-04-29T06:27:37.864Z,16.88
2023-04-29T06:30:05.278Z,23.85
2023-04-29T06:32:33.960Z,18.95
2023-04-29T06:36:01.697Z,17.98
2023-04-29T06:38:31.555Z,17.88
2023-04-29T06:41:00.961Z,21.08
2023-04-29T06:43:28.394Z,16.25
2023-04-29T06:45:57.919Z,19.00
2023-04-29T07:29:26.616Z,9.68
2023-04-29T07:31:53.645Z,13.75
2023-04-29T07:34:20.812Z,11.82
2023-04-29T07:36:57.516Z,12.50
2023-04-29T07:39:26.846Z,8.55
2023-04-29T07:41:53.889Z,12.43
2023-04-29T07:44:21.810Z,10.43
2023-04-29T07:46:49.180Z,13.90
2023-04-29T07:49:16.455Z,14.18
2023-04-29T07:51:44.196Z,10.30
2023-04-29T07:54:11.215Z,8.02
2023-04-29T07:56:38.171Z,9.75
2023-04-29T07:59:08.094Z,10.75
2023-04-29T08:01:37.549Z,10.35
2023-04-29T08:04:08.149Z,10.10
2023-04-29T08:06:36.082Z,11.35
2023-04-29T08:09:03.342Z,8.93
2023-04-29T08:11:33.308Z,9.60
2023-04-29T08:17:39.297Z,10.57
2023-04-29T08:23:04.168Z,10.52
2023-04-29T08:33:24.051Z,7.05
2023-04-29T08:47:31.023Z,8.65
2023-04-29T08:50:03.135Z,11.18
2023-04-29T09:00:14.520Z,6.28
2023-04-29T09:06:44.281Z,5.45
2023-04-29T09:09:11.928Z,3.42
2023-04-29T09:11:39.213Z,2.92
2023-04-29T09:14:08.842Z,5.18
2023-04-29T09:16:39.260Z,2.97
2023-04-29T09:19:08.844Z,5.60
2023-04-29T09:21:36.049Z,5.65
2023-04-29T09:26:47.368Z,5.85
2023-04-29T09:29:16.621Z,4.97
2023-04-29T09:32:02.125Z,4.40
2023-04-29T09:34:41.280Z,4.65
2023-04-29T09:37:31.787Z,9.40
2023-04-29T09:40:13.922Z,8.60
2023-04-29T09:42:47.511Z,5.70
2023-04-29T09:45:14.729Z,4.72
2023-04-29T09:48:12.714Z,5.57
2023-04-29T09:50:41.297Z,5.28
2023-04-29T09:53:31.805Z,6.50
2023-04-29T09:56:12.389Z,6.43
2023-04-29T09:58:50.403Z,6.30
2023-04-29T10:01:22.994Z,9.07
2023-04-29T10:03:57.162Z,6.50
2023-04-29T10:07:28.032Z,4.60
2023-04-29T10:10:03.113Z,5.22
2023-04-29T10:12:35.789Z,4.30
2023-04-29T10:15:19.060Z,5.90
2023-04-29T10:18:12.064Z,6.28
2023-04-29T10:20:41.094Z,7.18
2023-04-29T10:23:19.077Z,5.50
2023-04-29T10:25:52.865Z,5.28
2023-04-29T10:28:38.014Z,9.73
2023-04-29T10:31:39.392Z,6.55
2023-04-29T10:34:59.579Z,4.05
2023-04-29T10:41:12.633Z,4.10
2023-04-29T10:43:50.533Z,4.80
2023-04-29T10:47:06.798Z,6.53
2023-04-29T10:50:04.925Z,5.80
2023-04-29T10:53:00.873Z,6.05
2023-04-29T10:55:51.130Z,4.55
2023-04-29T11:05:13.945Z,5.95
2023-04-29T11:07:56.983Z,5.93
2023-04-29T11:10:44.373Z,4.90
2023-04-29T11:13:40.678Z,5.65
2023-04-29T11:16:11.223Z,6.95
2023-04-29T11:19:08.248Z,9.55
2023-04-29T11:21:39.423Z,5.90
2023-04-29T11:24:08.044Z,4.20
2023-04-29T11:26:35.537Z,11.00
2023-04-29T11:29:02.614Z,4.63
2023-04-29T11:31:32.996Z,5.78
2023-04-29T11:34:00.573Z,7.07
2023-04-29T11:36:27.745Z,7.88
2023-04-29T11:38:54.694Z,4.60
2023-04-29T11:41:22.513Z,5.25
2023-04-29T11:43:59.710Z,4.82
2023-04-29T11:46:29.267Z,5.13
2023-04-29T11:48:58.533Z,9.13
2023-04-29T11:51:25.935Z,5.13
2023-04-29T11:53:52.968Z,6.97
2023-04-29T11:56:25.535Z,5.03
2023-04-29T11:58:58.988Z,6.85
2023-04-29T12:01:27.004Z,4.97
2023-04-29T12:03:59.383Z,5.35
2023-04-29T12:06:30.480Z,4.28
2023-04-29T12:08:59.640Z,5.93
2023-04-29T12:11:26.954Z,8.20
2023-04-29T12:13:55.141Z,4.68
2023-04-29T12:16:24.207Z,4.43
2023-04-29T12:18:54.237Z,7.30
2023-04-29T12:21:22.477Z,9.02
2023-04-29T12:23:51.735Z,7.85
2023-04-29T12:26:19.366Z,4.93
2023-04-29T12:28:49.654Z,4.82
2023-04-29T12:31:18.365Z,4.25
2023-04-29T12:33:45.595Z,6.82
2023-04-29T12:36:18.941Z,4.47
2023-04-29T12:38:47.997Z,6.10
2023-04-29T12:41:17.369Z,4.75
2023-04-29T12:43:44.618Z,3.15
2023-04-29T12:46:14.962Z,3.47
2023-04-29T12:48:43.725Z,7.15
2023-04-29T12:51:11.819Z,4.03
2023-04-29T12:53:39.093Z,5.13
2023-04-29T12:56:06.789Z,4.38
2023-04-29T12:58:35.099Z,4.25
2023-04-29T13:01:02.158Z,4.18
2023-04-29T13:03:29.403Z,2.72
2023-04-29T13:05:57.301Z,3.20
2023-04-29T13:08:24.249Z,3.25
2023-04-29T13:10:54.133Z,4.80
2023-04-29T13:13:21.856Z,4.22
2023-04-29T13:15:49.432Z,6.45
2023-04-29T13:18:16.657Z,3.80
2023-04-29T13:20:43.530Z,6.75
2023-04-29T13:23:10.864Z,4.13
2023-04-29T13:25:37.859Z,6.32
2023-04-29T13:28:08.027Z,4.93
2023-04-29T13:30:35.206Z,3.70
2023-04-29T13:33:12.186Z,3.58
2023-04-29T13:35:41.729Z,6.88
2023-04-29T13:38:09.376Z,5.22
2023-04-29T13:40:42.298Z,5.88
2023-04-29T13:43:14.546Z,4.93
2023-04-29T13:45:47.908Z,8.43
2023-04-29T13:48:28.524Z,5.25
2023-04-29T13:54:36.446Z,6.95
2023-04-29T13:57:26.235Z,6.03
2023-04-29T14:04:17.937Z,8.75
2023-04-29T14:06:45.036Z,5.32
2023-04-29T14:09:11.912Z,5.00
2023-04-29T14:11:38.843Z,6.13
2023-04-29T14:14:05.826Z,8.05
2023-04-29T14:20:59.530Z,5.40
2023-04-29T14:23:26.711Z,10.88
2023-04-29T14:25:58.920Z,9.02
2023-04-29T14:28:34.745Z,5.95
2023-04-29T14:31:01.989Z,5.65
2023-04-29T14:33:28.993Z,8.35
2023-04-29T14:35:56.244Z,10.75
2023-04-29T14:38:23.429Z,10.68
2023-04-29T14:40:53.499Z,7.82
2023-04-29T14:43:20.546Z,5.32
2023-04-29T14:45:47.672Z,5.32
2023-04-29T14:48:14.864Z,6.78
2023-04-29T14:50:41.886Z,7.72
2023-04-29T14:53:09.249Z,7.03
2023-04-29T14:55:53.158Z,5.55
2023-04-29T15:00:49.831Z,7.78
2023-04-29T15:03:23.256Z,3.35
2023-04-29T15:08:22.364Z,6.97
2023-04-29T15:10:55.827Z,7.68
2023-04-29T15:13:22.851Z,4.18
2023-04-29T15:15:52.143Z,7.18
2023-04-29T15:18:20.820Z,4.65
2023-04-29T15:20:52.503Z,3.22
2023-04-29T15:23:19.934Z,7.25
2023-04-29T15:25:46.993Z,4.93
2023-04-29T15:28:17.140Z,6.38
2023-04-29T15:30:52.980Z,4.18
2023-04-29T15:33:20.214Z,4.07
2023-04-29T15:38:44.220Z,5.90
2023-04-29T15:41:17.945Z,3.28
2023-04-29T15:43:52.660Z,10.43
2023-04-29T15:46:30.041Z,4.28
2023-04-29T15:49:07.026Z,4.88
2023-04-29T15:51:45.151Z,4.85
2023-04-29T15:54:21.043Z,7.38
2023-04-29T15:56:54.482Z,3.88
2023-04-29T15:59:37.944Z,5.20
2023-04-29T16:02:11.748Z,5.15
2023-04-29T16:04:44.397Z,5.22
2023-04-29T16:07:28.249Z,5.75
2023-04-29T16:09:57.189Z,5.15
2023-04-29T16:12:44.042Z,4.18
2023-04-29T16:15:27.255Z,7.43
2023-04-29T16:18:06.113Z,4.60
2023-04-29T16:20:49.068Z,3.53
2023-04-29T16:23:26.542Z,3.13
2023-04-29T16:26:04.770Z,5.55
2023-04-29T16:28:38.452Z,4.18
2023-04-29T16:33:59.612Z,3.88
2023-04-29T16:36:29.306Z,8.73
2023-04-29T16:38:58.383Z,9.40
2023-04-29T16:41:30.441Z,4.85
2023-04-29T16:46:53.411Z,5.75
2023-04-29T16:53:22.004Z,5.88
2023-04-29T16:55:50.587Z,4.43
2023-04-29T16:58:17.687Z,4.68
2023-04-29T17:00:44.567Z,5.22
2023-04-29T17:03:11.775Z,7.00
2023-04-29T17:06:00.056Z,4.30
2023-04-29T17:08:27.452Z,5.97
2023-04-29T17:11:00.123Z,7.18
2023-04-29T17:13:28.307Z,3.77
2023-04-29T17:15:58.749Z,5.43
2023-04-29T17:18:42.257Z,5.60
2023-04-29T17:21:12.583Z,9.35
2023-04-29T17:28:09.034Z,5.45
2023-04-29T17:30:38.996Z,8.13
2023-04-29T17:33:09.243Z,4.20
2023-04-29T17:35:45.518Z,7.68
2023-04-29T17:38:19.494Z,6.72
2023-04-29T17:40:52.545Z,5.93
2023-04-29T17:43:24.198Z,5.50
2023-04-29T17:45:54.615Z,5.50
2023-04-29T17:48:24.508Z,6.20
2023-04-29T17:51:10.720Z,7.60
2023-04-29T17:53:37.814Z,8.15
2023-04-29T17:56:12.922Z,6.28
2023-04-29T17:58:40.139Z,26.33
2023-04-29T18:03:51.011Z,6.60
2023-04-29T18:06:21.532Z,5.85
2023-04-29T18:08:51.302Z,6.28
2023-04-29T18:11:24.279Z,4.90
2023-04-29T18:14:20.320Z,5.20
2023-04-29T18:16:51.892Z,6.13
2023-04-29T18:19:32.572Z,8.82
2023-04-29T18:22:03.077Z,8.32
2023-04-29T18:24:39.741Z,7.68
2023-04-29T18:27:07.114Z,7.03
2023-04-29T18:29:47.865Z,8.27
2023-04-29T18:32:52.417Z,7.68
2023-04-29T18:37:51.053Z,6.57
2023-04-29T18:40:23.840Z,5.18
2023-04-29T18:42:50.768Z,8.97
2023-04-29T18:45:20.208Z,7.82
2023-04-29T18:47:47.199Z,5.07
2023-04-29T18:50:14.171Z,4.28
2023-04-29T18:52:41.776Z,10.32
2023-04-29T18:55:09.243Z,4.82
2023-04-29T18:57:36.266Z,6.28
2023-04-29T19:00:03.948Z,5.20
2023-04-29T19:02:30.995Z,5.43
2023-04-29T19:05:46.080Z,5.00
2023-04-29T19:08:16.300Z,8.48
2023-04-29T19:10:44.530Z,4.35
2023-04-29T19:13:11.623Z,5.68
2023-04-29T19:15:39.098Z,6.13
2023-04-29T19:18:06.075Z,7.45
2023-04-29T19:20:33.018Z,4.53
2023-04-29T19:23:00.062Z,5.53
2023-04-29T19:25:27.197Z,7.45
2023-04-29T19:27:54.262Z,7.53
2023-04-29T19:30:21.289Z,4.45
2023-04-29T19:32:49.239Z,6.10
2023-04-29T19:35:16.253Z,6.45
2023-04-29T19:37:43.386Z,4.50
2023-04-29T19:40:11.034Z,6.63
2023-04-29T19:42:38.908Z,5.60
2023-04-29T19:45:07.994Z,4.55
2023-04-29T19:47:35.087Z,5.90
2023-04-29T19:50:02.525Z,6.93
2023-04-29T19:52:31.175Z,8.15
2023-04-29T19:54:58.217Z,6.82
2023-04-29T19:57:26.242Z,6.82
2023-04-29T19:59:53.383Z,4.10
2023-04-29T20:02:20.531Z,5.60
2023-04-29T20:04:48.411Z,6.60
2023-04-29T20:07:15.424Z,4.13
2023-04-29T20:09:42.645Z,5.93
2023-04-29T20:12:09.599Z,4.63
2023-04-29T20:14:39.358Z,6.72
2023-04-29T20:17:16.788Z,4.95
2023-04-29T20:19:48.814Z,5.50
2023-04-29T20:22:15.966Z,11.57
2023-04-29T20:24:42.971Z,4.38
2023-04-29T20:27:11.057Z,6.35
2023-04-29T20:29:38.196Z,7.55
2023-04-29T20:32:06.354Z,10.45
2023-04-29T20:34:33.373Z,16.58
2023-04-29T20:37:00.474Z,4.53
2023-04-29T20:39:27.762Z,3.75
2023-04-29T20:41:57.227Z,10.43
2023-04-29T20:44:24.393Z,6.85
2023-04-29T20:46:53.267Z,9.15
2023-04-29T20:49:20.606Z,5.00
2023-04-29T20:51:49.399Z,5.97
2023-04-29T20:54:16.477Z,6.47
2023-04-29T20:56:43.541Z,7.60
2023-04-29T20:59:10.706Z,6.88
2023-04-29T21:01:38.168Z,9.93
2023-04-29T21:04:05.765Z,9.48
2023-04-29T21:06:33.738Z,12.60
2023-04-29T21:09:01.049Z,5.68
2023-04-29T21:11:28.122Z,6.05
2023-04-29T21:13:55.183Z,7.88
2023-04-29T21:16:25.350Z,6.28
2023-04-29T21:18:52.647Z,7.43
2023-04-29T21:21:19.690Z,6.80
2023-04-29T21:23:47.015Z,5.57
2023-04-29T21:26:16.759Z,11.38
2023-04-29T21:28:46.688Z,10.18
2023-04-29T21:31:16.628Z,6.28
2023-04-29T21:33:44.470Z,10.05
2023-04-29T21:36:11.519Z,8.20
2023-04-29T21:38:48.717Z,8.07
2023-04-29T21:41:25.692Z,7.13
2023-04-29T21:43:52.720Z,8.70
2023-04-29T21:46:22.714Z,6.72
2023-04-29T21:48:49.778Z,11.82
2023-04-29T21:51:19.301Z,8.88
2023-04-29T21:53:46.349Z,8.95
2023-04-29T21:56:13.278Z,13.63
2023-04-29T21:58:43.822Z,14.35
2023-04-29T22:01:26.937Z,10.60
2023-04-29T22:04:00.540Z,9.47
2023-04-29T22:06:31.747Z,14.07
2023-04-29T22:08:59.043Z,20.02
2023-04-29T22:11:28.592Z,15.88
2023-04-29T22:13:55.693Z,14.55
2023-04-29T22:16:25.775Z,13.75
2023-04-29T22:18:54.953Z,13.57
2023-04-29T22:21:23.214Z,14.52
2023-04-29T22:23:50.658Z,11.88
2023-04-29T22:26:18.894Z,12.32
2023-04-29T22:28:46.069Z,14.55
2023-04-29T22:31:16.183Z,18.67
2023-04-29T22:33:49.052Z,17.48
2023-04-29T22:36:16.116Z,19.30
2023-04-29T22:38:43.149Z,12.48
2023-04-29T22:41:11.830Z,15.18
2023-04-29T22:43:38.891Z,16.52
2023-04-29T22:46:05.937Z,15.57
2023-04-29T22:48:33.067Z,14.90
2023-04-29T22:51:00.297Z,14.90
2023-04-29T22:53:27.400Z,17.67
2023-04-29T22:55:56.014Z,15.25
2023-04-29T22:58:26.018Z,14.63
2023-04-29T23:00:57.379Z,13.93
2023-04-29T23:03:24.908Z,14.73
2023-04-29T23:05:52.231Z,17.58
2023-04-29T23:08:22.941Z,17.67
2023-04-29T23:10:50.218Z,14.70
2023-04-29T23:13:17.452Z,19.05
2023-04-29T23:15:44.809Z,19.00
2023-04-29T23:18:12.097Z,15.85
2023-04-29T23:20:39.276Z,16.88
2023-04-29T23:23:06.347Z,23.33
2023-04-29T23:25:35.724Z,18.15
2023-04-29T23:28:02.743Z,14.90
2023-04-29T23:30:29.773Z,20.67
2023-04-29T23:32:56.758Z,15.93
2023-04-29T23:35:28.957Z,14.07
2023-04-29T23:37:56.379Z,18.30
2023-04-29T23:40:26.239Z,20.08
2023-04-29T23:42:53.323Z,14.50
2023-04-29T23:45:20.785Z,15.30
2023-04-29T23:47:47.986Z,18.48
2023-04-29T23:50:15.366Z,16.95
2023-04-29T23:52:42.412Z,17.13
2023-04-29T23:55:10.008Z,13.43
2023-04-29T23:57:37.129Z,10.65
